Time;durP1;ratioP1;P1;durP2;ratioP2;P2;SDS_P1;SDS_P2;PMS_P1;PMS_P2;Temp;Humidity;BMP_temperature;BMP_pressure;BME280_temperature;BME280_humidity;BME280_pressure;Samples;Min_cycle;Max_cycle;Signal;HPM_P1;HPM_P2
2022/07/01 00:01:37;;;;;;;5.97;2.83;;;;;;;;;;6277320;22;19988;-70
2022/07/01 00:07:32;;;;;;;14.10;3.33;;;;;;;;;;6276794;22;20005;-70
2022/07/01 00:09:57;;;;;;;6.85;3.33;;;;;;;;;;6276652;22;20015;-71
2022/07/01 00:12:22;;;;;;;12.02;3.38;;;;;;;;;;6277219;22;19995;-70
2022/07/01 00:14:47;;;;;;;8.45;3.50;;;;;;;;;;6276668;22;20407;-71
2022/07/01 00:17:13;;;;;;;7.53;3.42;;;;;;;;;;6276975;22;20082;-70
2022/07/01 00:19:38;;;;;;;10.60;4.30;;;;;;;;;;6277020;22;20297;-70
2022/07/01 00:22:03;;;;;;;10.02;4.00;;;;;;;;;;6276676;22;20000;-70
2022/07/01 00:24:28;;;;;;;6.05;3.05;;;;;;;;;;6277167;22;20378;-70
2022/07/01 00:26:54;;;;;;;11.95;3.65;;;;;;;;;;6277217;22;19996;-70
2022/07/01 00:29:19;;;;;;;11.02;3.97;;;;;;;;;;6276856;22;19996;-70
2022/07/01 00:31:44;;;;;;;7.47;3.85;;;;;;;;;;6276759;22;20004;-70
2022/07/01 00:34:09;;;;;;;10.90;3.08;;;;;;;;;;6276793;22;19996;-70
2022/07/01 00:36:35;;;;;;;9.25;3.97;;;;;;;;;;6276769;22;19991;-70
2022/07/01 00:39:00;;;;;;;10.52;3.90;;;;;;;;;;6276367;22;20016;-70
2022/07/01 00:41:25;;;;;;;14.88;4.38;;;;;;;;;;6276980;22;19991;-70
2022/07/01 00:43:51;;;;;;;5.55;3.33;;;;;;;;;;6277182;22;20134;-70
2022/07/01 00:46:17;;;;;;;9.48;3.92;;;;;;;;;;6276867;22;20008;-70
2022/07/01 00:48:43;;;;;;;114.45;6.55;;;;;;;;;;6276992;22;20779;-71
2022/07/01 00:51:08;;;;;;;15.23;4.63;;;;;;;;;;6276624;22;19996;-70
2022/07/01 00:53:33;;;;;;;12.23;3.75;;;;;;;;;;6277122;22;20015;-71
2022/07/01 00:55:59;;;;;;;26.40;4.68;;;;;;;;;;6276813;22;19999;-71
2022/07/01 00:58:30;;;;;;;73.13;6.20;;;;;;;;;;6276768;22;19992;-70
2022/07/01 01:00:56;;;;;;;34.95;4.60;;;;;;;;;;6276561;22;20082;-70
2022/07/01 01:03:22;;;;;;;21.60;5.28;;;;;;;;;;6277242;22;20022;-71
2022/07/01 01:05:48;;;;;;;8.30;4.10;;;;;;;;;;6276346;22;20428;-70
2022/07/01 01:08:13;;;;;;;13.50;4.22;;;;;;;;;;6276813;22;20018;-70
2022/07/01 01:13:55;;;;;;;69.25;5.57;;;;;;;;;;6275730;22;20154;-70
2022/07/01 01:16:21;;;;;;;14.63;4.28;;;;;;;;;;6276893;22;20071;-70
2022/07/01 01:18:46;;;;;;;14.10;4.68;;;;;;;;;;6276445;22;19992;-70
2022/07/01 01:21:11;;;;;;;13.98;5.20;;;;;;;;;;6278217;22;20000;-69
2022/07/01 01:23:37;;;;;;;16.77;4.75;;;;;;;;;;6278774;22;20042;-70
2022/07/01 01:26:02;;;;;;;14.98;4.97;;;;;;;;;;6278618;22;19991;-70
2022/07/01 01:28:28;;;;;;;12.85;4.78;;;;;;;;;;6278764;22;19995;-70
2022/07/01 01:30:53;;;;;;;12.23;4.85;;;;;;;;;;6278419;22;20018;-70
2022/07/01 01:33:18;;;;;;;18.23;5.05;;;;;;;;;;6278886;22;19992;-70
2022/07/01 01:35:43;;;;;;;21.17;5.13;;;;;;;;;;6278525;22;20019;-70
2022/07/01 01:38:09;;;;;;;27.92;5.65;;;;;;;;;;6278709;22;20014;-70
2022/07/01 01:40:34;;;;;;;27.50;5.75;;;;;;;;;;6277849;22;20309;-70
2022/07/01 01:42:59;;;;;;;19.83;5.22;;;;;;;;;;6278658;22;19999;-70
2022/07/01 01:45:24;;;;;;;26.95;5.72;;;;;;;;;;6278540;22;20003;-70
2022/07/01 01:47:50;;;;;;;20.27;5.22;;;;;;;;;;6278656;22;20469;-70
2022/07/01 01:50:15;;;;;;;11.07;4.35;;;;;;;;;;6278378;22;19999;-70
2022/07/01 01:52:42;;;;;;;15.73;4.70;;;;;;;;;;6251447;22;20008;-71
2022/07/01 01:55:08;;;;;;;18.48;3.97;;;;;;;;;;6278015;22;20416;-70
2022/07/01 01:57:33;;;;;;;9.43;3.50;;;;;;;;;;6278496;22;20051;-71
2022/07/01 01:59:58;;;;;;;11.55;3.70;;;;;;;;;;6277916;22;20428;-70
2022/07/01 02:02:23;;;;;;;88.75;5.35;;;;;;;;;;6278042;22;19996;-70
2022/07/01 02:04:49;;;;;;;16.52;3.95;;;;;;;;;;6278240;22;19999;-70
2022/07/01 02:07:14;;;;;;;9.63;3.78;;;;;;;;;;6278377;22;20008;-70
2022/07/01 02:09:39;;;;;;;6.43;3.28;;;;;;;;;;6278115;22;20371;-70
2022/07/01 02:12:05;;;;;;;8.18;3.28;;;;;;;;;;6278454;22;19991;-70
2022/07/01 02:14:30;;;;;;;14.93;3.67;;;;;;;;;;6278284;22;20838;-71
2022/07/01 02:16:55;;;;;;;16.45;3.65;;;;;;;;;;6278325;22;19995;-70
2022/07/01 02:19:21;;;;;;;16.15;3.78;;;;;;;;;;6278200;22;20082;-70
2022/07/01 02:21:46;;;;;;;18.35;4.00;;;;;;;;;;6278179;22;20062;-70
2022/07/01 02:24:11;;;;;;;39.78;3.85;;;;;;;;;;6278243;22;20400;-70
2022/07/01 02:26:36;;;;;;;55.13;6.53;;;;;;;;;;6278205;22;20046;-70
2022/07/01 02:29:02;;;;;;;71.18;6.00;;;;;;;;;;6278070;22;20011;-70
2022/07/01 02:31:27;;;;;;;47.10;4.95;;;;;;;;;;6277655;22;19991;-70
2022/07/01 02:33:53;;;;;;;69.25;6.55;;;;;;;;;;6277856;22;20019;-70
2022/07/01 02:36:18;;;;;;;138.80;8.13;;;;;;;;;;6278081;22;20004;-70
2022/07/01 02:38:43;;;;;;;92.45;7.00;;;;;;;;;;6277772;22;20000;-70
2022/07/01 02:41:09;;;;;;;36.20;4.47;;;;;;;;;;6278457;22;20011;-70
2022/07/01 02:43:35;;;;;;;44.00;6.38;;;;;;;;;;6278002;22;20082;-70
2022/07/01 02:46:00;;;;;;;87.60;5.53;;;;;;;;;;6277842;22;20042;-70
2022/07/01 02:48:25;;;;;;;100.43;5.20;;;;;;;;;;6277692;22;19992;-70
2022/07/01 02:50:50;;;;;;;49.33;4.15;;;;;;;;;;6277739;22;20082;-70
2022/07/01 02:53:16;;;;;;;56.63;4.25;;;;;;;;;;6277924;22;20343;-70
2022/07/01 02:55:41;;;;;;;90.75;8.43;;;;;;;;;;6278083;22;19992;-70
2022/07/01 02:58:06;;;;;;;40.63;4.20;;;;;;;;;;6277858;22;20388;-70
2022/07/01 03:00:31;;;;;;;17.40;3.28;;;;;;;;;;6277791;22;20004;-70
2022/07/01 03:02:57;;;;;;;14.57;3.25;;;;;;;;;;6277826;22;20000;-70
2022/07/01 03:05:22;;;;;;;16.70;3.00;;;;;;;;;;6277796;22;20105;-70
2022/07/01 03:07:47;;;;;;;23.38;3.25;;;;;;;;;;6277852;22;19988;-70
2022/07/01 03:10:13;;;;;;;43.85;4.00;;;;;;;;;;6277387;22;19992;-70
2022/07/01 03:12:39;;;;;;;24.98;3.22;;;;;;;;;;6277691;22;20008;-71
2022/07/01 03:15:06;;;;;;;14.00;3.15;;;;;;;;;;6277713;22;20353;-70
2022/07/01 03:17:33;;;;;;;13.82;3.05;;;;;;;;;;6277773;22;19995;-71
2022/07/01 03:19:59;;;;;;;20.90;3.38;;;;;;;;;;6277315;22;20022;-70
2022/07/01 03:22:25;;;;;;;19.50;3.90;;;;;;;;;;6277741;22;20375;-70
2022/07/01 03:24:51;;;;;;;17.95;3.88;;;;;;;;;;6277600;22;20075;-71
2022/07/01 03:27:16;;;;;;;24.95;3.38;;;;;;;;;;6277577;22;20023;-70
2022/07/01 03:29:42;;;;;;;21.60;3.67;;;;;;;;;;6277441;22;19991;-70
2022/07/01 03:32:09;;;;;;;22.55;2.92;;;;;;;;;;6277549;22;20408;-70
2022/07/01 03:34:34;;;;;;;26.83;3.72;;;;;;;;;;6277510;22;20011;-70
2022/07/01 03:36:59;;;;;;;34.40;3.83;;;;;;;;;;6277848;22;19992;-71
2022/07/01 03:39:25;;;;;;;19.65;3.60;;;;;;;;;;6276946;22;20021;-70
2022/07/01 03:41:50;;;;;;;6.05;3.08;;;;;;;;;;6277246;22;20049;-70
2022/07/01 03:44:15;;;;;;;12.98;3.17;;;;;;;;;;6276862;22;20359;-70
2022/07/01 03:46:40;;;;;;;13.20;3.03;;;;;;;;;;6277251;22;20045;-71
2022/07/01 03:49:07;;;;;;;66.40;3.92;;;;;;;;;;6277347;22;20010;-70
2022/07/01 03:51:33;;;;;;;20.65;3.55;;;;;;;;;;6277250;22;20070;-71
2022/07/01 03:56:42;;;;;;;8.95;2.17;;;;;;;;;;6276825;22;20060;-71
2022/07/01 03:59:07;;;;;;;5.57;2.20;;;;;;;;;;6276930;22;20007;-70
2022/07/01 04:01:32;;;;;;;40.70;3.10;;;;;;;;;;6277351;22;20061;-70
2022/07/01 04:03:57;;;;;;;50.92;2.55;;;;;;;;;;6276812;22;20404;-70
2022/07/01 04:06:23;;;;;;;72.75;3.50;;;;;;;;;;6276699;22;19995;-70
2022/07/01 04:08:48;;;;;;;106.13;6.30;;;;;;;;;;6277120;22;20432;-71
2022/07/01 04:11:14;;;;;;;63.80;4.50;;;;;;;;;;6277511;22;20052;-70
2022/07/01 04:13:39;;;;;;;61.60;5.60;;;;;;;;;;6276771;22;19999;-71
2022/07/01 04:16:05;;;;;;;28.25;2.55;;;;;;;;;;6277027;22;20007;-70
2022/07/01 04:18:30;;;;;;;21.25;2.97;;;;;;;;;;6277463;22;19992;-71
2022/07/01 04:23:40;;;;;;;41.83;2.67;;;;;;;;;;6276724;22;20112;-71
2022/07/01 04:26:05;;;;;;;23.75;2.63;;;;;;;;;;6277040;22;19992;-70
2022/07/01 04:28:31;;;;;;;10.30;2.00;;;;;;;;;;6277072;22;20007;-70
2022/07/01 04:30:56;;;;;;;18.90;2.90;;;;;;;;;;6276833;22;20054;-71
2022/07/01 04:33:21;;;;;;;12.63;1.75;;;;;;;;;;6276941;22;20063;-70
2022/07/01 04:35:46;;;;;;;29.42;3.47;;;;;;;;;;6276825;22;20003;-70
2022/07/01 04:38:11;;;;;;;34.10;2.17;;;;;;;;;;6277151;22;20401;-71
2022/07/01 04:40:37;;;;;;;28.73;1.95;;;;;;;;;;6276816;22;20408;-70
2022/07/01 04:43:02;;;;;;;65.47;3.85;;;;;;;;;;6276950;22;20432;-70
2022/07/01 04:45:27;;;;;;;7.30;1.63;;;;;;;;;;6276995;22;20396;-71
2022/07/01 04:47:52;;;;;;;7.40;2.03;;;;;;;;;;6276697;22;20034;-70
2022/07/01 04:50:18;;;;;;;8.52;1.50;;;;;;;;;;6276705;22;20431;-70
2022/07/01 04:52:43;;;;;;;5.07;1.50;;;;;;;;;;6276861;22;20067;-70
2022/07/01 04:55:08;;;;;;;5.25;1.52;;;;;;;;;;6276433;22;19992;-70
2022/07/01 04:57:33;;;;;;;7.70;1.48;;;;;;;;;;6276882;22;20000;-71
2022/07/01 04:59:59;;;;;;;5.30;1.33;;;;;;;;;;6276557;22;20037;-71
2022/07/01 05:02:24;;;;;;;18.35;1.60;;;;;;;;;;6276634;22;19988;-71
2022/07/01 05:04:49;;;;;;;6.13;1.55;;;;;;;;;;6276746;22;20007;-69
2022/07/01 05:07:30;;;;;;;26.05;2.80;;;;;;;;;;6276385;22;19991;-70
2022/07/01 05:09:55;;;;;;;4.05;1.35;;;;;;;;;;6276645;22;20065;-70
2022/07/01 05:12:21;;;;;;;2.72;1.40;;;;;;;;;;6276543;22;20003;-70
2022/07/01 05:14:47;;;;;;;2.70;1.30;;;;;;;;;;6276654;22;20079;-70
2022/07/01 05:17:12;;;;;;;5.15;1.50;;;;;;;;;;6276690;22;20019;-70
2022/07/01 05:22:21;;;;;;;5.82;1.17;;;;;;;;;;6276314;22;20741;-71
2022/07/01 05:24:46;;;;;;;2.33;1.20;;;;;;;;;;6276644;22;20008;-70
2022/07/01 05:27:11;;;;;;;6.35;1.25;;;;;;;;;;6276652;22;19995;-69
2022/07/01 05:29:37;;;;;;;5.70;1.08;;;;;;;;;;6276657;22;20018;-70
2022/07/01 05:32:02;;;;;;;3.58;1.10;;;;;;;;;;6276581;22;20387;-70
2022/07/01 05:34:27;;;;;;;5.18;1.20;;;;;;;;;;6276785;22;20145;-70
2022/07/01 05:36:53;;;;;;;5.00;0.95;;;;;;;;;;6276502;22;20455;-70
2022/07/01 05:39:18;;;;;;;1.88;1.00;;;;;;;;;;6276610;22;20035;-70
2022/07/01 05:41:43;;;;;;;1.40;0.80;;;;;;;;;;6276120;22;20360;-71
2022/07/01 05:44:08;;;;;;;1.65;1.00;;;;;;;;;;6276605;22;19988;-70
2022/07/01 05:46:34;;;;;;;2.08;1.08;;;;;;;;;;6276933;22;20098;-70
2022/07/01 05:48:59;;;;;;;2.08;1.00;;;;;;;;;;6276351;22;20462;-70
2022/07/01 05:51:24;;;;;;;2.10;1.00;;;;;;;;;;6277005;22;19998;-70
2022/07/01 05:53:50;;;;;;;2.78;0.90;;;;;;;;;;6276496;22;20019;-70
2022/07/01 05:56:15;;;;;;;1.50;0.90;;;;;;;;;;6276533;22;20018;-70
2022/07/01 05:58:40;;;;;;;2.90;1.20;;;;;;;;;;6276385;22;20037;-70
2022/07/01 06:01:06;;;;;;;2.25;0.80;;;;;;;;;;6276025;22;20015;-69
2022/07/01 06:03:31;;;;;;;1.65;0.98;;;;;;;;;;6276216;22;20041;-70
2022/07/01 06:05:56;;;;;;;3.22;1.05;;;;;;;;;;6276740;22;19999;-70
2022/07/01 06:08:21;;;;;;;2.10;0.90;;;;;;;;;;6278387;22;20424;-70
2022/07/01 06:10:47;;;;;;;3.28;1.00;;;;;;;;;;6278399;22;19991;-70
2022/07/01 06:13:12;;;;;;;3.70;0.93;;;;;;;;;;6278192;22;20002;-70
2022/07/01 06:15:37;;;;;;;2.25;0.90;;;;;;;;;;6278291;22;20008;-71
2022/07/01 06:18:02;;;;;;;3.85;1.00;;;;;;;;;;6278147;22;20002;-70
2022/07/01 06:20:28;;;;;;;2.25;1.00;;;;;;;;;;6278254;22;20065;-70
2022/07/01 06:22:53;;;;;;;3.08;1.30;;;;;;;;;;6278107;22;19999;-70
2022/07/01 06:25:18;;;;;;;1.70;1.10;;;;;;;;;;6278467;22;19987;-70
2022/07/01 06:27:44;;;;;;;1.60;1.00;;;;;;;;;;6278024;22;20463;-70
2022/07/01 06:30:10;;;;;;;2.25;1.17;;;;;;;;;;6278168;22;20016;-71
2022/07/01 06:32:35;;;;;;;2.97;1.10;;;;;;;;;;6278048;22;20067;-70
2022/07/01 06:35:00;;;;;;;1.40;0.88;;;;;;;;;;6278099;22;20003;-71
2022/07/01 06:37:26;;;;;;;3.08;1.10;;;;;;;;;;6278158;22;20011;-71
2022/07/01 06:39:51;;;;;;;2.03;1.10;;;;;;;;;;6277755;22;20424;-71
2022/07/01 06:42:17;;;;;;;2.00;1.00;;;;;;;;;;6278083;22;19988;-71
2022/07/01 06:44:42;;;;;;;2.30;1.10;;;;;;;;;;6277757;22;20010;-72
2022/07/01 06:47:07;;;;;;;1.50;1.00;;;;;;;;;;6278156;22;20404;-72
2022/07/01 06:49:32;;;;;;;3.20;1.15;;;;;;;;;;6278368;22;20300;-72
2022/07/01 06:51:58;;;;;;;6.20;1.10;;;;;;;;;;6277786;22;20061;-72
2022/07/01 06:54:23;;;;;;;4.50;1.08;;;;;;;;;;6277939;22;19996;-72
2022/07/01 06:56:48;;;;;;;2.15;1.15;;;;;;;;;;6277768;22;19999;-72
2022/07/01 06:59:15;;;;;;;4.50;1.20;;;;;;;;;;6277759;22;20015;-72
2022/07/01 07:01:40;;;;;;;1.73;0.95;;;;;;;;;;6277698;22;20074;-72
2022/07/01 07:04:06;;;;;;;3.80;1.10;;;;;;;;;;6277942;22;20048;-72
2022/07/01 07:06:31;;;;;;;5.20;1.08;;;;;;;;;;6277820;22;20010;-72
2022/07/01 07:08:56;;;;;;;2.03;1.10;;;;;;;;;;6277810;22;20328;-72
2022/07/01 07:11:21;;;;;;;3.05;1.10;;;;;;;;;;6277820;22;20419;-72
2022/07/01 07:13:47;;;;;;;2.45;1.15;;;;;;;;;;6277437;22;20435;-72
2022/07/01 07:16:12;;;;;;;2.53;1.23;;;;;;;;;;6277770;22;20106;-72
2022/07/01 07:18:38;;;;;;;3.13;1.25;;;;;;;;;;6277152;22;19996;-72
2022/07/01 07:21:03;;;;;;;4.80;1.40;;;;;;;;;;6277696;22;20047;-71
2022/07/01 07:23:29;;;;;;;3.85;1.42;;;;;;;;;;6277712;22;20297;-72
2022/07/01 07:25:54;;;;;;;3.25;1.30;;;;;;;;;;6277514;22;20412;-71
2022/07/01 07:28:19;;;;;;;2.50;1.30;;;;;;;;;;6277541;22;20007;-73
2022/07/01 07:30:44;;;;;;;2.03;1.10;;;;;;;;;;6277356;22;20370;-72
2022/07/01 07:33:10;;;;;;;5.47;1.60;;;;;;;;;;6277655;22;20000;-71
2022/07/01 07:35:35;;;;;;;4.72;1.85;;;;;;;;;;6277358;22;20007;-72
2022/07/01 07:38:00;;;;;;;6.78;2.88;;;;;;;;;;6277372;22;20026;-71
2022/07/01 07:40:25;;;;;;;10.63;2.28;;;;;;;;;;6276897;22;20012;-71
2022/07/01 07:42:51;;;;;;;6.57;2.08;;;;;;;;;;6277251;22;20003;-72
2022/07/01 07:45:16;;;;;;;8.80;2.22;;;;;;;;;;6277554;22;19999;-72
2022/07/01 07:47:46;;;;;;;5.70;2.10;;;;;;;;;;6277110;22;20305;-73
2022/07/01 07:50:11;;;;;;;6.45;1.67;;;;;;;;;;6277228;22;20042;-72
2022/07/01 07:52:37;;;;;;;5.75;1.75;;;;;;;;;;6277087;22;20355;-72
2022/07/01 07:55:03;;;;;;;4.00;1.60;;;;;;;;;;6277629;22;20000;-72
2022/07/01 07:57:28;;;;;;;7.60;1.98;;;;;;;;;;6277240;22;20407;-72
2022/07/01 07:59:53;;;;;;;7.85;1.70;;;;;;;;;;6277268;22;20400;-72
2022/07/01 08:02:18;;;;;;;3.38;1.50;;;;;;;;;;6276921;22;20380;-72
2022/07/01 08:04:44;;;;;;;7.32;2.08;;;;;;;;;;6277268;22;20003;-72
2022/07/01 08:07:09;;;;;;;8.02;1.92;;;;;;;;;;6277239;22;20000;-71
2022/07/01 08:09:34;;;;;;;6.10;1.80;;;;;;;;;;6277181;22;20404;-70
2022/07/01 08:12:02;;;;;;;8.73;1.98;;;;;;;;;;6277102;22;20347;-70
2022/07/01 08:14:28;;;;;;;7.10;2.05;;;;;;;;;;6277260;22;20034;-71
2022/07/01 08:16:53;;;;;;;7.35;1.73;;;;;;;;;;6277033;22;20412;-71
2022/07/01 08:19:18;;;;;;;4.53;1.70;;;;;;;;;;6277051;22;20037;-71
2022/07/01 08:21:44;;;;;;;11.95;2.03;;;;;;;;;;6277055;22;19996;-71
2022/07/01 08:24:09;;;;;;;3.47;1.30;;;;;;;;;;6277124;22;20019;-71
2022/07/01 08:26:34;;;;;;;8.27;1.85;;;;;;;;;;6276524;22;20015;-71
2022/07/01 08:28:59;;;;;;;8.90;1.90;;;;;;;;;;6276880;22;19995;-72
2022/07/01 08:31:25;;;;;;;6.13;1.92;;;;;;;;;;6276986;22;19996;-72
2022/07/01 08:33:50;;;;;;;4.30;1.70;;;;;;;;;;6276940;22;20305;-72
2022/07/01 08:36:15;;;;;;;6.55;2.13;;;;;;;;;;6277042;22;20020;-72
2022/07/01 08:38:41;;;;;;;7.93;1.92;;;;;;;;;;6276529;22;19999;-72
2022/07/01 08:41:06;;;;;;;9.43;3.40;;;;;;;;;;6277133;22;20057;-72
2022/07/01 08:43:33;;;;;;;5.22;2.10;;;;;;;;;;6276770;22;20017;-72
2022/07/01 08:45:59;;;;;;;5.20;1.75;;;;;;;;;;6276891;22;20066;-72
2022/07/01 08:48:24;;;;;;;7.72;1.85;;;;;;;;;;6276956;22;20077;-72
2022/07/01 08:50:49;;;;;;;3.42;1.40;;;;;;;;;;6276721;22;19991;-72
2022/07/01 08:53:14;;;;;;;6.32;1.77;;;;;;;;;;6276853;22;20002;-72
2022/07/01 08:58:25;;;;;;;6.47;1.63;;;;;;;;;;6276461;22;20370;-72
2022/07/01 09:00:50;;;;;;;7.18;2.05;;;;;;;;;;6276614;22;20016;-72
2022/07/01 09:03:15;;;;;;;5.50;1.60;;;;;;;;;;6276500;22;19996;-72
2022/07/01 09:05:47;;;;;;;6.35;1.90;;;;;;;;;;6277029;22;19996;-72
2022/07/01 09:08:13;;;;;;;7.45;1.85;;;;;;;;;;6276711;22;20008;-72
2022/07/01 09:10:38;;;;;;;4.20;1.48;;;;;;;;;;6276661;22;20078;-72
2022/07/01 09:13:13;;;;;;;5.97;1.45;;;;;;;;;;6276736;22;19999;-73
2022/07/01 09:15:41;;;;;;;6.57;1.48;;;;;;;;;;6276790;22;20038;-72
2022/07/01 09:18:07;;;;;;;4.10;1.45;;;;;;;;;;6276837;22;19999;-73
2022/07/01 09:20:33;;;;;;;3.65;1.38;;;;;;;;;;6276623;22;20011;-73
2022/07/01 09:23:03;;;;;;;6.35;1.33;;;;;;;;;;6276913;22;20027;-71
2022/07/01 09:25:29;;;;;;;6.20;1.48;;;;;;;;;;6276907;22;19992;-71
2022/07/01 09:28:04;;;;;;;3.53;1.40;;;;;;;;;;6276636;22;20057;-71
2022/07/01 09:30:29;;;;;;;6.13;1.73;;;;;;;;;;6276272;22;20439;-71
2022/07/01 09:33:05;;;;;;;5.15;1.60;;;;;;;;;;6276593;22;20007;-71
2022/07/01 09:35:31;;;;;;;5.63;1.60;;;;;;;;;;6276294;22;20420;-71
2022/07/01 09:37:56;;;;;;;8.48;2.25;;;;;;;;;;6276578;22;20000;-72
2022/07/01 09:40:21;;;;;;;3.90;1.27;;;;;;;;;;6276077;22;20015;-72
2022/07/01 09:42:47;;;;;;;4.38;1.60;;;;;;;;;;6278435;22;19995;-72
2022/07/01 09:45:12;;;;;;;9.32;2.55;;;;;;;;;;6278639;22;20074;-72
2022/07/01 09:47:40;;;;;;;6.43;1.73;;;;;;;;;;6278536;22;20038;-72
2022/07/01 09:50:07;;;;;;;6.50;1.50;;;;;;;;;;6278393;22;20004;-72
2022/07/01 09:52:32;;;;;;;6.13;1.73;;;;;;;;;;6278584;22;20007;-72
2022/07/01 09:54:57;;;;;;;5.68;1.50;;;;;;;;;;6278588;22;20029;-72
2022/07/01 09:57:23;;;;;;;4.15;1.63;;;;;;;;;;6278495;22;19995;-73
2022/07/01 09:59:51;;;;;;;4.20;1.30;;;;;;;;;;6278359;22;20031;-72
2022/07/01 10:02:20;;;;;;;5.63;1.15;;;;;;;;;;6278521;22;20019;-73
2022/07/01 10:04:47;;;;;;;6.20;1.60;;;;;;;;;;6278236;22;20026;-73
2022/07/01 10:07:29;;;;;;;3.72;1.17;;;;;;;;;;6277999;22;20474;-72
2022/07/01 10:09:57;;;;;;;6.90;1.25;;;;;;;;;;6278596;22;20004;-72
2022/07/01 10:12:28;;;;;;;6.53;1.40;;;;;;;;;;6278372;22;20015;-72
2022/07/01 10:14:54;;;;;;;5.85;1.30;;;;;;;;;;6278140;22;20305;-72
2022/07/01 10:17:34;;;;;;;8.25;1.30;;;;;;;;;;6278337;22;20015;-72
2022/07/01 10:20:26;;;;;;;3.58;1.20;;;;;;;;;;6277585;22;20432;-73
2022/07/01 10:22:59;;;;;;;7.72;1.50;;;;;;;;;;6272170;22;20008;-72
2022/07/01 10:25:54;;;;;;;5.70;1.05;;;;;;;;;;6277740;22;20391;-72
2022/07/01 10:28:26;;;;;;;4.43;1.10;;;;;;;;;;6251585;22;20069;-72
2022/07/01 10:30:52;;;;;;;4.50;1.00;;;;;;;;;;6278214;22;20004;-72
2022/07/01 10:33:31;;;;;;;7.85;1.15;;;;;;;;;;6278179;22;20070;-72
2022/07/01 10:36:03;;;;;;;9.90;1.20;;;;;;;;;;6277962;22;20000;-72
2022/07/01 10:38:28;;;;;;;3.03;1.08;;;;;;;;;;6277865;22;20436;-72
2022/07/01 10:40:54;;;;;;;4.70;1.00;;;;;;;;;;6277308;22;20012;-72
2022/07/01 10:43:34;;;;;;;4.50;1.05;;;;;;;;;;6278033;22;20083;-72
2022/07/01 10:46:00;;;;;;;2.20;0.90;;;;;;;;;;6278126;22;20008;-72
2022/07/01 10:48:25;;;;;;;3.97;1.10;;;;;;;;;;6277925;22;20011;-72
2022/07/01 10:50:51;;;;;;;3.65;0.90;;;;;;;;;;6277764;22;20100;-72
2022/07/01 10:53:17;;;;;;;4.40;1.10;;;;;;;;;;6277096;22;20397;-72
2022/07/01 10:55:47;;;;;;;4.07;0.95;;;;;;;;;;6277839;22;20031;-72
2022/07/01 10:58:13;;;;;;;2.97;0.80;;;;;;;;;;6277953;22;20008;-72
2022/07/01 11:00:45;;;;;;;2.95;0.85;;;;;;;;;;6278070;22;20008;-72
2022/07/01 11:03:10;;;;;;;3.70;1.05;;;;;;;;;;6277902;22;20007;-72
2022/07/01 11:05:36;;;;;;;8.23;1.15;;;;;;;;;;6277726;22;20044;-72
2022/07/01 11:08:01;;;;;;;4.28;1.35;;;;;;;;;;6277731;22;19988;-72
2022/07/01 11:10:27;;;;;;;6.18;1.33;;;;;;;;;;6277950;22;20008;-72
2022/07/01 11:12:52;;;;;;;3.63;0.80;;;;;;;;;;6277650;22;20007;-72
2022/07/01 11:15:18;;;;;;;4.85;0.95;;;;;;;;;;6277694;22;20401;-72
2022/07/01 11:17:44;;;;;;;5.00;0.80;;;;;;;;;;6277675;22;20010;-72
2022/07/01 11:20:10;;;;;;;8.02;1.92;;;;;;;;;;6277198;22;20449;-72
2022/07/01 11:22:35;;;;;;;3.35;1.10;;;;;;;;;;6277625;22;20023;-72
2022/07/01 11:25:02;;;;;;;3.58;0.80;;;;;;;;;;6277697;22;20099;-72
2022/07/01 11:27:27;;;;;;;4.80;0.70;;;;;;;;;;6277629;22;20008;-72
2022/07/01 11:29:57;;;;;;;4.43;0.60;;;;;;;;;;6277579;22;20071;-72
2022/07/01 11:32:25;;;;;;;3.42;0.90;;;;;;;;;;6277495;22;20302;-72
2022/07/01 11:34:50;;;;;;;5.85;0.70;;;;;;;;;;6277520;22;20004;-72
2022/07/01 11:40:06;;;;;;;2.15;0.80;;;;;;;;;;6276846;22;20509;-72
2022/07/01 11:42:32;;;;;;;5.80;0.70;;;;;;;;;;6277372;22;20082;-72
2022/07/01 11:44:58;;;;;;;5.88;1.00;;;;;;;;;;6277264;22;20027;-72
2022/07/01 11:47:24;;;;;;;4.10;0.90;;;;;;;;;;6277466;22;19995;-72
2022/07/01 11:49:49;;;;;;;5.82;0.93;;;;;;;;;;6277306;22;20004;-72
2022/07/01 11:52:15;;;;;;;4.45;1.08;;;;;;;;;;6276931;22;20000;-72
2022/07/01 11:54:43;;;;;;;7.45;1.17;;;;;;;;;;6277420;22;20003;-72
2022/07/01 11:57:13;;;;;;;5.95;1.00;;;;;;;;;;6276896;22;20454;-72
2022/07/01 11:59:39;;;;;;;2.50;0.80;;;;;;;;;;6276838;22;20427;-72
2022/07/01 12:02:04;;;;;;;2.83;0.85;;;;;;;;;;6277181;22;20070;-72
2022/07/01 12:04:30;;;;;;;3.75;0.80;;;;;;;;;;6277096;22;20083;-72
2022/07/01 12:06:55;;;;;;;3.13;0.65;;;;;;;;;;6277165;22;20082;-72
2022/07/01 12:09:20;;;;;;;2.17;0.60;;;;;;;;;;6277361;22;20075;-72
2022/07/01 12:11:47;;;;;;;4.72;0.80;;;;;;;;;;6277441;22;20004;-72
2022/07/01 12:14:18;;;;;;;5.13;0.90;;;;;;;;;;6277162;22;20006;-72
2022/07/01 12:16:44;;;;;;;5.18;0.90;;;;;;;;;;6277175;22;20007;-72
2022/07/01 12:19:09;;;;;;;4.38;0.80;;;;;;;;;;6276635;22;20344;-72
2022/07/01 12:21:47;;;;;;;1.42;0.60;;;;;;;;;;6277029;22;20000;-72
2022/07/01 12:24:13;;;;;;;4.55;0.80;;;;;;;;;;6277089;22;19992;-73
2022/07/01 12:26:52;;;;;;;2.75;0.88;;;;;;;;;;6277047;22;20013;-72
2022/07/01 12:29:18;;;;;;;1.80;0.80;;;;;;;;;;6277230;22;19996;-72
2022/07/01 12:31:44;;;;;;;4.93;1.00;;;;;;;;;;6249766;22;20378;-72
2022/07/01 12:34:09;;;;;;;3.55;1.00;;;;;;;;;;6277083;22;20026;-72
2022/07/01 12:36:34;;;;;;;7.38;0.80;;;;;;;;;;6276851;22;20034;-73
2022/07/01 12:39:03;;;;;;;2.42;0.82;;;;;;;;;;6277226;22;20004;-72
2022/07/01 12:41:28;;;;;;;5.88;1.05;;;;;;;;;;6249582;22;20085;-72
2022/07/01 12:43:54;;;;;;;3.63;0.90;;;;;;;;;;6276875;22;20404;-72
2022/07/01 12:46:29;;;;;;;4.22;1.00;;;;;;;;;;6276946;22;20010;-72
2022/07/01 12:48:55;;;;;;;7.28;1.05;;;;;;;;;;6276401;22;20293;-72
2022/07/01 12:51:20;;;;;;;3.58;0.73;;;;;;;;;;6276710;22;20022;-72
2022/07/01 12:53:45;;;;;;;2.85;0.73;;;;;;;;;;6276870;22;20455;-73
2022/07/01 12:56:21;;;;;;;4.45;1.02;;;;;;;;;;6276727;22;20312;-73
2022/07/01 12:58:47;;;;;;;4.82;0.55;;;;;;;;;;6276849;22;20443;-73
2022/07/01 13:01:13;;;;;;;2.20;0.70;;;;;;;;;;6276793;22;20008;-72
2022/07/01 13:03:38;;;;;;;2.60;0.60;;;;;;;;;;6276713;22;20079;-73
2022/07/01 13:06:03;;;;;;;1.33;0.50;;;;;;;;;;6276810;22;20023;-72
2022/07/01 13:08:29;;;;;;;1.65;0.43;;;;;;;;;;6276810;22;19988;-72
2022/07/01 13:10:54;;;;;;;1.98;0.50;;;;;;;;;;6276314;22;20100;-72
2022/07/01 13:13:20;;;;;;;2.25;0.55;;;;;;;;;;6276850;22;20003;-72
2022/07/01 13:15:45;;;;;;;4.70;0.80;;;;;;;;;;6276394;22;20408;-72
2022/07/01 13:18:13;;;;;;;2.15;0.60;;;;;;;;;;6278929;22;20061;-72
2022/07/01 13:20:40;;;;;;;1.15;0.52;;;;;;;;;;6278885;22;20069;-72
2022/07/01 13:23:05;;;;;;;3.30;0.60;;;;;;;;;;6278951;22;20023;-72
2022/07/01 13:25:31;;;;;;;2.13;0.65;;;;;;;;;;6278805;22;20677;-72
2022/07/01 13:27:56;;;;;;;0.80;0.40;;;;;;;;;;6278728;22;20038;-72
2022/07/01 13:30:22;;;;;;;2.53;0.52;;;;;;;;;;6279093;22;20050;-72
2022/07/01 13:32:47;;;;;;;1.80;0.60;;;;;;;;;;6279070;22;20012;-72
2022/07/01 13:35:13;;;;;;;1.58;0.50;;;;;;;;;;6278676;22;20316;-72
2022/07/01 13:37:38;;;;;;;1.98;0.80;;;;;;;;;;6278318;22;19991;-72
2022/07/01 13:40:04;;;;;;;0.70;0.50;;;;;;;;;;6278319;22;20012;-72
2022/07/01 13:42:29;;;;;;;2.00;0.40;;;;;;;;;;6278523;22;20364;-72
2022/07/01 13:44:55;;;;;;;2.72;0.70;;;;;;;;;;6278614;22;20277;-72
2022/07/01 13:47:20;;;;;;;1.15;0.60;;;;;;;;;;6278221;22;20011;-72
2022/07/01 13:49:45;;;;;;;4.07;0.70;;;;;;;;;;6278166;22;20003;-72
2022/07/01 13:52:11;;;;;;;1.92;0.63;;;;;;;;;;6278065;22;20049;-72
2022/07/01 13:54:36;;;;;;;0.73;0.50;;;;;;;;;;6278563;22;19999;-72
2022/07/01 13:57:01;;;;;;;4.20;0.70;;;;;;;;;;6277991;22;20004;-72
2022/07/01 13:59:27;;;;;;;2.47;0.60;;;;;;;;;;6278226;22;20003;-72
2022/07/01 14:01:52;;;;;;;2.25;0.55;;;;;;;;;;6277857;22;20014;-72
2022/07/01 14:04:17;;;;;;;1.85;0.63;;;;;;;;;;6278408;22;20004;-72
2022/07/01 14:06:43;;;;;;;1.65;0.50;;;;;;;;;;6278498;22;19991;-72
2022/07/01 14:09:08;;;;;;;2.35;0.70;;;;;;;;;;6278352;22;20436;-72
2022/07/01 14:11:33;;;;;;;1.00;0.40;;;;;;;;;;6278574;22;20014;-72
2022/07/01 14:13:58;;;;;;;2.33;0.50;;;;;;;;;;6278287;22;19992;-72
2022/07/01 14:16:24;;;;;;;0.40;0.40;;;;;;;;;;6278312;22;20008;-72
2022/07/01 14:18:50;;;;;;;1.48;0.52;;;;;;;;;;6278103;22;20010;-72
2022/07/01 14:21:17;;;;;;;1.83;0.60;;;;;;;;;;6278178;22;20003;-72
2022/07/01 14:23:42;;;;;;;1.40;0.47;;;;;;;;;;6278330;22;20010;-72
2022/07/01 14:26:07;;;;;;;2.53;0.60;;;;;;;;;;6278231;22;20011;-72
2022/07/01 14:28:32;;;;;;;1.55;0.60;;;;;;;;;;6278133;22;20435;-72
2022/07/01 14:30:58;;;;;;;1.83;0.50;;;;;;;;;;6278071;22;20320;-72
2022/07/01 14:33:23;;;;;;;2.05;0.60;;;;;;;;;;6278042;22;20006;-72
2022/07/01 14:35:50;;;;;;;1.85;0.70;;;;;;;;;;6278115;22;20372;-72
2022/07/01 14:38:15;;;;;;;4.05;0.52;;;;;;;;;;6278219;22;20003;-72
2022/07/01 14:40:40;;;;;;;1.88;0.60;;;;;;;;;;6277957;22;20490;-72
2022/07/01 14:43:06;;;;;;;2.63;0.60;;;;;;;;;;6278043;22;20369;-72
2022/07/01 14:45:31;;;;;;;0.98;0.50;;;;;;;;;;6277977;22;20007;-72
2022/07/01 14:47:56;;;;;;;1.30;0.50;;;;;;;;;;6277904;22;20014;-72
2022/07/01 14:50:21;;;;;;;1.23;0.50;;;;;;;;;;6277877;22;20003;-72
2022/07/01 14:52:47;;;;;;;2.97;0.70;;;;;;;;;;6277494;22;20050;-72